sensor_id;sensor_type;location;lat;lon;timestamp;pressure;altitude;pressure_sealevel;temperature;humidity
23229;BME280;11783;50.350;6.576;2023-01-09T00:01:42;94217.69;;;4.68;100.00
23229;BME280;11783;50.350;6.576;2023-01-09T00:04:08;94219.78;;;4.71;100.00
23229;BME280;11783;50.350;6.576;2023-01-09T00:06:34;94221.13;;;4.74;100.00
23229;BME280;11783;50.350;6.576;2023-01-09T00:09:04;94226.13;;;4.75;100.00
23229;BME280;11783;50.350;6.576;2023-01-09T00:11:30;94220.88;;;4.75;100.00
23229;BME280;11783;50.350;6.576;2023-01-09T00:13:57;94219.56;;;4.78;100.00
23229;BME280;11783;50.350;6.576;2023-01-09T00:16:25;94224.03;;;4.77;100.00
23229;BME280;11783;50.350;6.576;2023-01-09T00:18:50;94211.41;;;4.79;100.00
23229;BME280;11783;50.350;6.576;2023-01-09T00:21:20;94210.88;;;4.77;100.00
23229;BME280;11783;50.350;6.576;2023-01-09T00:23:54;94207.25;;;4.89;100.00
23229;BME280;11783;50.350;6.576;2023-01-09T00:26:20;94215.16;;;4.89;100.00
23229;BME280;11783;50.350;6.576;2023-01-09T00:28:50;94210.09;;;4.82;100.00
23229;BME280;11783;50.350;6.576;2023-01-09T00:31:18;94221.41;;;4.82;100.00
23229;BME280;11783;50.350;6.576;2023-01-09T00:34:05;94208.75;;;4.74;100.00
23229;BME280;11783;50.350;6.576;2023-01-09T00:36:34;94219.81;;;4.76;100.00
23229;BME280;11783;50.350;6.576;2023-01-09T00:39:03;94215.88;;;4.79;100.00
23229;BME280;11783;50.350;6.576;2023-01-09T00:41:36;94211.97;;;4.86;100.00
23229;BME280;11783;50.350;6.576;2023-01-09T00:44:13;94215.41;;;4.87;100.00
23229;BME280;11783;50.350;6.576;2023-01-09T00:46:50;94215.91;;;4.84;100.00
23229;BME280;11783;50.350;6.576;2023-01-09T00:49:20;94229.81;;;4.74;100.00
23229;BME280;11783;50.350;6.576;2023-01-09T00:51:46;94228.72;;;4.70;100.00
23229;BME280;11783;50.350;6.576;2023-01-09T00:54:14;94223.72;;;4.69;100.00
23229;BME280;11783;50.350;6.576;2023-01-09T00:56:40;94225.03;;;4.66;100.00
23229;BME280;11783;50.350;6.576;2023-01-09T00:59:06;94226.09;;;4.65;100.00
23229;BME280;11783;50.350;6.576;2023-01-09T01:01:35;94221.63;;;4.66;100.00
23229;BME280;11783;50.350;6.576;2023-01-09T01:04:08;94225.06;;;4.71;100.00
23229;BME280;11783;50.350;6.576;2023-01-09T01:06:52;94226.34;;;4.69;100.00
23229;BME280;11783;50.350;6.576;2023-01-09T01:09:36;94224.81;;;4.78;100.00
23229;BME280;11783;50.350;6.576;2023-01-09T01:12:02;94225.06;;;4.76;100.00
23229;BME280;11783;50.350;6.576;2023-01-09T01:14:35;94228.22;;;4.73;100.00
23229;BME280;11783;50.350;6.576;2023-01-09T01:17:06;94228.72;;;4.70;100.00
23229;BME280;11783;50.350;6.576;2023-01-09T01:19:37;94233.25;;;4.80;100.00
23229;BME280;11783;50.350;6.576;2023-01-09T01:22:05;94235.09;;;4.79;100.00
23229;BME280;11783;50.350;6.576;2023-01-09T01:24:30;94227.44;;;4.78;100.00
23229;BME280;11783;50.350;6.576;2023-01-09T01:26:56;94231.13;;;4.77;100.00
23229;BME280;11783;50.350;6.576;2023-01-09T01:29:21;94230.09;;;4.78;100.00
23229;BME280;11783;50.350;6.576;2023-01-09T01:31:47;94235.59;;;4.76;100.00
23229;BME280;11783;50.350;6.576;2023-01-09T01:34:18;94221.09;;;4.69;100.00
23229;BME280;11783;50.350;6.576;2023-01-09T01:36:46;94222.44;;;4.76;100.00
23229;BME280;11783;50.350;6.576;2023-01-09T01:39:15;94226.91;;;4.76;100.00
23229;BME280;11783;50.350;6.576;2023-01-09T01:41:43;94218.22;;;4.75;100.00
23229;BME280;11783;50.350;6.576;2023-01-09T01:47:17;94232.47;;;4.79;100.00
23229;BME280;11783;50.350;6.576;2023-01-09T01:49:44;94248.75;;;4.76;100.00
23229;BME280;11783;50.350;6.576;2023-01-09T01:52:17;94244.81;;;4.74;100.00
23229;BME280;11783;50.350;6.576;2023-01-09T01:54:47;94250.78;;;4.64;100.00
23229;BME280;11783;50.350;6.576;2023-01-09T01:57:18;94247.63;;;4.62;100.00
23229;BME280;11783;50.350;6.576;2023-01-09T01:59:48;94255.56;;;4.67;100.00
23229;BME280;11783;50.350;6.576;2023-01-09T02:02:18;94256.03;;;4.64;100.00
23229;BME280;11783;50.350;6.576;2023-01-09T02:04:53;94248.91;;;4.54;100.00
23229;BME280;11783;50.350;6.576;2023-01-09T02:07:20;94260.22;;;4.60;100.00
23229;BME280;11783;50.350;6.576;2023-01-09T02:09:48;94262.09;;;4.65;100.00
23229;BME280;11783;50.350;6.576;2023-01-09T02:12:20;94266.88;;;4.68;100.00
23229;BME280;11783;50.350;6.576;2023-01-09T02:14:52;94267.34;;;4.60;100.00
23229;BME280;11783;50.350;6.576;2023-01-09T02:20:22;94271.28;;;4.57;100.00
23229;BME280;11783;50.350;6.576;2023-01-09T02:38:59;94291.00;;;4.60;100.00
23229;BME280;11783;50.350;6.576;2023-01-09T02:44:25;94303.91;;;4.61;100.00
23229;BME280;11783;50.350;6.576;2023-01-09T02:49:50;94308.44;;;4.34;100.00
23229;BME280;11783;50.350;6.576;2023-01-09T02:52:52;94302.38;;;4.28;100.00
23229;BME280;11783;50.350;6.576;2023-01-09T03:06:52;94322.53;;;4.22;100.00
23229;BME280;11783;50.350;6.576;2023-01-09T03:09:25;94315.69;;;4.21;100.00
23229;BME280;11783;50.350;6.576;2023-01-09T03:12:03;94319.16;;;4.27;100.00
23229;BME280;11783;50.350;6.576;2023-01-09T03:14:42;94319.91;;;4.22;100.00
23229;BME280;11783;50.350;6.576;2023-01-09T03:17:18;94321.44;;;4.13;100.00
23229;BME280;11783;50.350;6.576;2023-01-09T03:19:45;94323.00;;;4.14;100.00
23229;BME280;11783;50.350;6.576;2023-01-09T03:22:14;94324.31;;;4.12;100.00
23229;BME280;11783;50.350;6.576;2023-01-09T03:24:47;94342.38;;;4.08;100.00
23229;BME280;11783;50.350;6.576;2023-01-09T03:27:16;94328.38;;;3.98;100.00
23229;BME280;11783;50.350;6.576;2023-01-09T03:29:42;94326.81;;;4.02;100.00
23229;BME280;11783;50.350;6.576;2023-01-09T03:32:10;94342.09;;;4.05;100.00
23229;BME280;11783;50.350;6.576;2023-01-09T03:34:35;94346.56;;;4.04;100.00
23229;BME280;11783;50.350;6.576;2023-01-09T03:37:01;94354.41;;;3.99;100.00
23229;BME280;11783;50.350;6.576;2023-01-09T03:39:29;94353.97;;;3.85;100.00
23229;BME280;11783;50.350;6.576;2023-01-09T03:41:54;94366.69;;;3.93;100.00
23229;BME280;11783;50.350;6.576;2023-01-09T03:44:20;94369.59;;;3.92;100.00
23229;BME280;11783;50.350;6.576;2023-01-09T03:46:45;94367.53;;;3.99;100.00
23229;BME280;11783;50.350;6.576;2023-01-09T03:49:11;94360.53;;;3.83;100.00
23229;BME280;11783;50.350;6.576;2023-01-09T03:51:37;94358.75;;;3.88;100.00
23229;BME280;11783;50.350;6.576;2023-01-09T03:54:03;94350.38;;;3.91;100.00
23229;BME280;11783;50.350;6.576;2023-01-09T03:56:28;94350.69;;;3.95;100.00
23229;BME280;11783;50.350;6.576;2023-01-09T03:58:54;94359.66;;;3.99;100.00
23229;BME280;11783;50.350;6.576;2023-01-09T04:01:22;94358.81;;;3.93;100.00
23229;BME280;11783;50.350;6.576;2023-01-09T04:03:55;94350.59;;;3.90;100.00
23229;BME280;11783;50.350;6.576;2023-01-09T04:06:24;94361.06;;;3.85;100.00
23229;BME280;11783;50.350;6.576;2023-01-09T04:08:49;94360.81;;;3.86;100.00
23229;BME280;11783;50.350;6.576;2023-01-09T04:11:23;94369.09;;;3.73;100.00
23229;BME280;11783;50.350;6.576;2023-01-09T04:13:51;94363.06;;;3.73;100.00
23229;BME280;11783;50.350;6.576;2023-01-09T04:16:20;94363.47;;;3.64;100.00
23229;BME280;11783;50.350;6.576;2023-01-09T04:18:54;94372.88;;;3.60;100.00
23229;BME280;11783;50.350;6.576;2023-01-09T04:21:25;94373.97;;;3.64;100.00
23229;BME280;11783;50.350;6.576;2023-01-09T04:23:51;94372.84;;;3.55;100.00
23229;BME280;11783;50.350;6.576;2023-01-09T04:26:27;94377.16;;;3.67;100.00
23229;BME280;11783;50.350;6.576;2023-01-09T04:29:01;94391.38;;;3.71;100.00
23229;BME280;11783;50.350;6.576;2023-01-09T04:31:29;94388.16;;;3.63;100.00
23229;BME280;11783;50.350;6.576;2023-01-09T04:33:58;94377.06;;;3.56;100.00
23229;BME280;11783;50.350;6.576;2023-01-09T04:36:26;94375.06;;;3.69;100.00
23229;BME280;11783;50.350;6.576;2023-01-09T04:38:51;94385.09;;;3.72;100.00
23229;BME280;11783;50.350;6.576;2023-01-09T04:41:27;94387.25;;;3.75;100.00
23229;BME280;11783;50.350;6.576;2023-01-09T04:44:21;94383.88;;;3.79;100.00
23229;BME280;11783;50.350;6.576;2023-01-09T04:46:53;94385.41;;;3.75;100.00
23229;BME280;11783;50.350;6.576;2023-01-09T04:49:28;94399.16;;;3.82;100.00
23229;BME280;11783;50.350;6.576;2023-01-09T04:51:56;94393.78;;;3.94;100.00
23229;BME280;11783;50.350;6.576;2023-01-09T04:54:22;94409.78;;;3.92;100.00
23229;BME280;11783;50.350;6.576;2023-01-09T04:56:51;94410.34;;;3.73;100.00
23229;BME280;11783;50.350;6.576;2023-01-09T04:59:17;94410.41;;;3.78;100.00
23229;BME280;11783;50.350;6.576;2023-01-09T05:01:43;94413.63;;;3.85;100.00
23229;BME280;11783;50.350;6.576;2023-01-09T05:04:15;94404.16;;;3.84;100.00
23229;BME280;11783;50.350;6.576;2023-01-09T05:06:40;94410.47;;;3.83;100.00
23229;BME280;11783;50.350;6.576;2023-01-09T05:09:11;94414.38;;;3.80;100.00
23229;BME280;11783;50.350;6.576;2023-01-09T05:11:39;94410.94;;;3.80;100.00
23229;BME280;11783;50.350;6.576;2023-01-09T05:14:10;94412.84;;;3.84;100.00
23229;BME280;11783;50.350;6.576;2023-01-09T05:16:38;94411.00;;;3.85;100.00
23229;BME280;11783;50.350;6.576;2023-01-09T05:19:09;94408.44;;;3.90;100.00
23229;BME280;11783;50.350;6.576;2023-01-09T05:21:37;94424.53;;;3.93;100.00
23229;BME280;11783;50.350;6.576;2023-01-09T05:24:10;94426.09;;;3.94;100.00
23229;BME280;11783;50.350;6.576;2023-01-09T05:26:44;94426.59;;;3.91;100.00
23229;BME280;11783;50.350;6.576;2023-01-09T05:29:15;94421.03;;;3.88;100.00
23229;BME280;11783;50.350;6.576;2023-01-09T05:31:43;94425.47;;;3.87;100.00
23229;BME280;11783;50.350;6.576;2023-01-09T05:34:08;94420.22;;;3.87;100.00
23229;BME280;11783;50.350;6.576;2023-01-09T05:36:34;94427.88;;;3.89;100.00
23229;BME280;11783;50.350;6.576;2023-01-09T05:39:08;94435.16;;;3.82;100.00
23229;BME280;11783;50.350;6.576;2023-01-09T05:41:42;94429.66;;;3.83;100.00
23229;BME280;11783;50.350;6.576;2023-01-09T05:44:10;94430.97;;;3.86;100.00
23229;BME280;11783;50.350;6.576;2023-01-09T05:46:39;94435.81;;;3.94;100.00
23229;BME280;11783;50.350;6.576;2023-01-09T05:49:06;94431.38;;;3.94;100.00
23229;BME280;11783;50.350;6.576;2023-01-09T05:51:32;94429.41;;;3.85;100.00
23229;BME280;11783;50.350;6.576;2023-01-09T05:54:02;94427.44;;;3.97;100.00
23229;BME280;11783;50.350;6.576;2023-01-09T05:56:29;94429.59;;;4.00;100.00
23229;BME280;11783;50.350;6.576;2023-01-09T05:58:55;94427.81;;;3.84;100.00
23229;BME280;11783;50.350;6.576;2023-01-09T06:01:23;94419.75;;;3.90;100.00
23229;BME280;11783;50.350;6.576;2023-01-09T06:03:51;94443.81;;;3.82;100.00
23229;BME280;11783;50.350;6.576;2023-01-09T06:06:17;94434.41;;;3.86;100.00
23229;BME280;11783;50.350;6.576;2023-01-09T06:08:42;94431.16;;;4.01;100.00
23229;BME280;11783;50.350;6.576;2023-01-09T06:11:13;94433.50;;;3.98;100.00
23229;BME280;11783;50.350;6.576;2023-01-09T06:13:41;94435.69;;;4.06;100.00
23229;BME280;11783;50.350;6.576;2023-01-09T06:16:06;94451.44;;;4.06;100.00
23229;BME280;11783;50.350;6.576;2023-01-09T06:18:34;94440.09;;;4.00;100.00
23229;BME280;11783;50.350;6.576;2023-01-09T06:21:08;94451.69;;;4.04;100.00
23229;BME280;11783;50.350;6.576;2023-01-09T06:23:33;94437.28;;;4.07;100.00
23229;BME280;11783;50.350;6.576;2023-01-09T06:25:58;94440.94;;;4.06;100.00
23229;BME280;11783;50.350;6.576;2023-01-09T06:28:24;94439.66;;;4.08;100.00
23229;BME280;11783;50.350;6.576;2023-01-09T06:30:52;94441.09;;;3.94;100.00
23229;BME280;11783;50.350;6.576;2023-01-09T06:33:32;94444.56;;;4.00;100.00
23229;BME280;11783;50.350;6.576;2023-01-09T06:36:03;94453.38;;;4.10;100.00
23229;BME280;11783;50.350;6.576;2023-01-09T06:38:33;94455.13;;;4.05;100.00
23229;BME280;11783;50.350;6.576;2023-01-09T06:40:58;94453.84;;;4.07;100.00
23229;BME280;11783;50.350;6.576;2023-01-09T06:43:26;94464.19;;;4.14;100.00
23229;BME280;11783;50.350;6.576;2023-01-09T06:45:58;94452.19;;;4.01;100.00
23229;BME280;11783;50.350;6.576;2023-01-09T06:48:26;94452.44;;;4.00;100.00
23229;BME280;11783;50.350;6.576;2023-01-09T06:50:57;94448.31;;;4.09;100.00
23229;BME280;11783;50.350;6.576;2023-01-09T06:53:22;94455.91;;;4.05;100.00
23229;BME280;11783;50.350;6.576;2023-01-09T06:55:48;94455.38;;;4.03;100.00
23229;BME280;11783;50.350;6.576;2023-01-09T06:58:14;94464.59;;;4.06;100.00
23229;BME280;11783;50.350;6.576;2023-01-09T07:00:39;94463.81;;;4.05;100.00
23229;BME280;11783;50.350;6.576;2023-01-09T07:03:10;94462.75;;;4.06;100.00
23229;BME280;11783;50.350;6.576;2023-01-09T07:05:47;94469.81;;;4.01;100.00
23229;BME280;11783;50.350;6.576;2023-01-09T07:08:13;94473.72;;;3.98;100.00
23229;BME280;11783;50.350;6.576;2023-01-09T07:10:43;94467.91;;;3.96;100.00
23229;BME280;11783;50.350;6.576;2023-01-09T07:13:09;94477.88;;;3.94;100.00
23229;BME280;11783;50.350;6.576;2023-01-09T07:15:34;94468.94;;;3.95;100.00
23229;BME280;11783;50.350;6.576;2023-01-09T07:18:09;94467.97;;;4.01;100.00
23229;BME280;11783;50.350;6.576;2023-01-09T07:20:35;94453.53;;;4.04;100.00
23229;BME280;11783;50.350;6.576;2023-01-09T07:23:02;94450.38;;;4.02;100.00
23229;BME280;11783;50.350;6.576;2023-01-09T07:25:30;94460.34;;;4.00;100.00
23229;BME280;11783;50.350;6.576;2023-01-09T07:27:55;94467.91;;;3.96;100.00
23229;BME280;11783;50.350;6.576;2023-01-09T07:30:24;94454.88;;;4.06;100.00
23229;BME280;11783;50.350;6.576;2023-01-09T07:32:49;94466.97;;;4.07;100.00
23229;BME280;11783;50.350;6.576;2023-01-09T07:35:14;94464.84;;;4.04;100.00
23229;BME280;11783;50.350;6.576;2023-01-09T07:37:45;94476.69;;;4.07;100.00
23229;BME280;11783;50.350;6.576;2023-01-09T07:40:11;94473.91;;;4.13;100.00
23229;BME280;11783;50.350;6.576;2023-01-09T07:42:36;94482.94;;;4.01;100.00
23229;BME280;11783;50.350;6.576;2023-01-09T07:45:02;94483.75;;;4.01;100.00
23229;BME280;11783;50.350;6.576;2023-01-09T07:47:33;94485.38;;;4.07;100.00
23229;BME280;11783;50.350;6.576;2023-01-09T07:50:07;94481.25;;;4.11;100.00
23229;BME280;11783;50.350;6.576;2023-01-09T07:52:39;94489.69;;;4.13;100.00
23229;BME280;11783;50.350;6.576;2023-01-09T07:55:04;94495.72;;;4.14;100.00
23229;BME280;11783;50.350;6.576;2023-01-09T07:57:30;94492.59;;;4.17;100.00
23229;BME280;11783;50.350;6.576;2023-01-09T07:59:56;94492.66;;;4.22;100.00
23229;BME280;11783;50.350;6.576;2023-01-09T08:02:21;94498.84;;;4.11;100.00
23229;BME280;11783;50.350;6.576;2023-01-09T08:04:52;94504.56;;;4.08;100.00
23229;BME280;11783;50.350;6.576;2023-01-09T08:07:18;94506.66;;;4.06;100.00
23229;BME280;11783;50.350;6.576;2023-01-09T08:09:46;94502.94;;;4.02;100.00
23229;BME280;11783;50.350;6.576;2023-01-09T08:12:14;94511.25;;;4.15;100.00
23229;BME280;11783;50.350;6.576;2023-01-09T08:14:39;94522.91;;;4.03;100.00
23229;BME280;11783;50.350;6.576;2023-01-09T08:17:05;94516.94;;;4.07;100.00
23229;BME280;11783;50.350;6.576;2023-01-09T08:19:36;94512.72;;;4.06;100.00
23229;BME280;11783;50.350;6.576;2023-01-09T08:22:04;94513.34;;;3.91;100.00
23229;BME280;11783;50.350;6.576;2023-01-09T08:24:34;94514.84;;;3.87;100.00
23229;BME280;11783;50.350;6.576;2023-01-09T08:27:00;94517.22;;;3.89;100.00
23229;BME280;11783;50.350;6.576;2023-01-09T08:29:27;94518.81;;;3.90;100.00
23229;BME280;11783;50.350;6.576;2023-01-09T08:31:58;94512.84;;;3.94;100.00
23229;BME280;11783;50.350;6.576;2023-01-09T08:34:26;94523.97;;;4.02;100.00
23229;BME280;11783;50.350;6.576;2023-01-09T08:36:57;94523.31;;;4.11;100.00
23229;BME280;11783;50.350;6.576;2023-01-09T08:39:23;94529.28;;;4.07;100.00
23229;BME280;11783;50.350;6.576;2023-01-09T08:41:48;94539.78;;;4.07;100.00
23229;BME280;11783;50.350;6.576;2023-01-09T08:44:32;94526.59;;;4.02;100.00
23229;BME280;11783;50.350;6.576;2023-01-09T08:47:19;94525.19;;;4.16;100.00
23229;BME280;11783;50.350;6.576;2023-01-09T08:49:45;94537.00;;;4.13;100.00
23229;BME280;11783;50.350;6.576;2023-01-09T08:52:15;94530.22;;;4.17;100.00
23229;BME280;11783;50.350;6.576;2023-01-09T08:54:40;94547.63;;;4.23;100.00
23229;BME280;11783;50.350;6.576;2023-01-09T08:57:10;94547.72;;;4.29;100.00
23229;BME280;11783;50.350;6.576;2023-01-09T08:59:36;94541.34;;;4.24;100.00
23229;BME280;11783;50.350;6.576;2023-01-09T09:02:09;94545.09;;;4.29;100.00
23229;BME280;11783;50.350;6.576;2023-01-09T09:04:37;94552.88;;;4.23;100.00
23229;BME280;11783;50.350;6.576;2023-01-09T09:07:08;94541.41;;;4.30;100.00
23229;BME280;11783;50.350;6.576;2023-01-09T09:09:36;94544.50;;;4.26;100.00
23229;BME280;11783;50.350;6.576;2023-01-09T09:12:02;94543.00;;;4.31;100.00
23229;BME280;11783;50.350;6.576;2023-01-09T09:14:28;94554.56;;;4.30;100.00
23229;BME280;11783;50.350;6.576;2023-01-09T09:17:12;94548.91;;;4.21;100.00
23229;BME280;11783;50.350;6.576;2023-01-09T09:19:37;94547.22;;;4.32;100.00
23229;BME280;11783;50.350;6.576;2023-01-09T09:22:04;94566.97;;;4.34;100.00
23229;BME280;11783;50.350;6.576;2023-01-09T09:24:35;94556.09;;;4.47;100.00
23229;BME280;11783;50.350;6.576;2023-01-09T09:27:00;94555.13;;;4.32;100.00
23229;BME280;11783;50.350;6.576;2023-01-09T09:29:25;94561.97;;;4.33;100.00
23229;BME280;11783;50.350;6.576;2023-01-09T09:31:55;94562.38;;;4.24;100.00
23229;BME280;11783;50.350;6.576;2023-01-09T09:34:21;94559.25;;;4.28;100.00
23229;BME280;11783;50.350;6.576;2023-01-09T09:36:47;94563.78;;;4.32;100.00
23229;BME280;11783;50.350;6.576;2023-01-09T09:39:12;94563.00;;;4.32;100.00
23229;BME280;11783;50.350;6.576;2023-01-09T09:50:23;94575.47;;;4.41;100.00
23229;BME280;11783;50.350;6.576;2023-01-09T09:53:00;94587.66;;;4.47;100.00
23229;BME280;11783;50.350;6.576;2023-01-09T09:55:32;94587.66;;;4.47;100.00
23229;BME280;11783;50.350;6.576;2023-01-09T09:58:01;94584.84;;;4.54;100.00
23229;BME280;11783;50.350;6.576;2023-01-09T10:00:34;94587.53;;;4.59;100.00
23229;BME280;11783;50.350;6.576;2023-01-09T10:03:09;94588.06;;;4.61;100.00
23229;BME280;11783;50.350;6.576;2023-01-09T10:05:39;94605.63;;;4.55;100.00
23229;BME280;11783;50.350;6.576;2023-01-09T10:08:37;94595.16;;;4.61;100.00
23229;BME280;11783;50.350;6.576;2023-01-09T10:11:16;94582.63;;;4.68;100.00
23229;BME280;11783;50.350;6.576;2023-01-09T10:13:44;94591.38;;;4.73;100.00
23229;BME280;11783;50.350;6.576;2023-01-09T10:16:53;94593.63;;;4.65;100.00
23229;BME280;11783;50.350;6.576;2023-01-09T10:30:05;94596.13;;;4.76;100.00
23229;BME280;11783;50.350;6.576;2023-01-09T10:33:00;94591.91;;;4.75;100.00
23229;BME280;11783;50.350;6.576;2023-01-09T10:35:43;94601.06;;;4.68;100.00
23229;BME280;11783;50.350;6.576;2023-01-09T10:38:23;94577.66;;;4.71;100.00
23229;BME280;11783;50.350;6.576;2023-01-09T10:40:55;94587.91;;;4.68;100.00
23229;BME280;11783;50.350;6.576;2023-01-09T10:46:09;94577.50;;;4.83;100.00
23229;BME280;11783;50.350;6.576;2023-01-09T10:48:43;94584.50;;;4.94;100.00
23229;BME280;11783;50.350;6.576;2023-01-09T10:51:21;94597.09;;;4.92;100.00
23229;BME280;11783;50.350;6.576;2023-01-09T10:53:50;94581.06;;;4.94;100.00
23229;BME280;11783;50.350;6.576;2023-01-09T10:56:27;94587.13;;;4.94;100.00
23229;BME280;11783;50.350;6.576;2023-01-09T10:58:55;94586.06;;;4.95;100.00
23229;BME280;11783;50.350;6.576;2023-01-09T11:01:26;94590.75;;;4.88;100.00
23229;BME280;11783;50.350;6.576;2023-01-09T11:03:52;94595.78;;;4.90;100.00
23229;BME280;11783;50.350;6.576;2023-01-09T11:06:23;94599.78;;;4.97;100.00
23229;BME280;11783;50.350;6.576;2023-01-09T11:08:55;94598.44;;;4.95;100.00
23229;BME280;11783;50.350;6.576;2023-01-09T11:11:37;94593.63;;;4.86;100.00
23229;BME280;11783;50.350;6.576;2023-01-09T11:14:13;94598.44;;;4.95;100.00
23229;BME280;11783;50.350;6.576;2023-01-09T11:16:50;94603.84;;;5.05;100.00
23229;BME280;11783;50.350;6.576;2023-01-09T11:19:16;94602.16;;;4.99;100.00
23229;BME280;11783;50.350;6.576;2023-01-09T11:21:41;94608.97;;;4.95;100.00
23229;BME280;11783;50.350;6.576;2023-01-09T11:24:24;94615.84;;;4.96;100.00
23229;BME280;11783;50.350;6.576;2023-01-09T11:29:39;94628.88;;;5.07;100.00
23229;BME280;11783;50.350;6.576;2023-01-09T11:32:25;94623.78;;;5.01;100.00
23229;BME280;11783;50.350;6.576;2023-01-09T11:34:52;94632.25;;;5.03;100.00
23229;BME280;11783;50.350;6.576;2023-01-09T11:37:24;94639.34;;;5.02;100.00
23229;BME280;11783;50.350;6.576;2023-01-09T11:39:54;94654.97;;;4.87;100.00
23229;BME280;11783;50.350;6.576;2023-01-09T11:42:24;94650.25;;;4.67;100.00
23229;BME280;11783;50.350;6.576;2023-01-09T11:45:20;94654.16;;;4.65;100.00
23229;BME280;11783;50.350;6.576;2023-01-09T11:47:46;94656.78;;;4.65;100.00
23229;BME280;11783;50.350;6.576;2023-01-09T11:50:26;94647.47;;;4.57;100.00
23229;BME280;11783;50.350;6.576;2023-01-09T11:53:13;94661.50;;;4.63;100.00
23229;BME280;11783;50.350;6.576;2023-01-09T11:55:40;94657.16;;;4.73;100.00
23229;BME280;11783;50.350;6.576;2023-01-09T11:58:18;94654.03;;;4.76;100.00
23229;BME280;11783;50.350;6.576;2023-01-09T12:09:05;94664.63;;;4.81;100.00
23229;BME280;11783;50.350;6.576;2023-01-09T12:14:34;94670.50;;;4.89;100.00
23229;BME280;11783;50.350;6.576;2023-01-09T12:22:54;94677.56;;;5.05;100.00
23229;BME280;11783;50.350;6.576;2023-01-09T12:28:43;94670.13;;;5.02;100.00
23229;BME280;11783;50.350;6.576;2023-01-09T12:39:39;94676.09;;;4.92;100.00
23229;BME280;11783;50.350;6.576;2023-01-09T12:47:47;94673.81;;;4.79;100.00
23229;BME280;11783;50.350;6.576;2023-01-09T12:52:43;94686.16;;;4.78;100.00
23229;BME280;11783;50.350;6.576;2023-01-09T12:55:20;94702.94;;;4.72;100.00
23229;BME280;11783;50.350;6.576;2023-01-09T12:57:50;94704.88;;;4.60;100.00
23229;BME280;11783;50.350;6.576;2023-01-09T13:05:46;94715.22;;;4.28;100.00
23229;BME280;11783;50.350;6.576;2023-01-09T13:08:35;94709.31;;;4.21;100.00
23229;BME280;11783;50.350;6.576;2023-01-09T13:11:17;94714.41;;;4.28;100.00
23229;BME280;11783;50.350;6.576;2023-01-09T13:16:17;94716.47;;;4.25;100.00
23229;BME280;11783;50.350;6.576;2023-01-09T13:18:48;94709.38;;;4.26;100.00
23229;BME280;11783;50.350;6.576;2023-01-09T13:21:17;94712.38;;;4.13;100.00
23229;BME280;11783;50.350;6.576;2023-01-09T13:23:50;94713.06;;;4.08;100.00
23229;BME280;11783;50.350;6.576;2023-01-09T13:27:18;94725.66;;;4.06;100.00
23229;BME280;11783;50.350;6.576;2023-01-09T13:29:31;94722.31;;;4.11;100.00
23229;BME280;11783;50.350;6.576;2023-01-09T13:34:33;94728.13;;;4.13;100.00
23229;BME280;11783;50.350;6.576;2023-01-09T13:37:00;94736.25;;;4.11;100.00
23229;BME280;11783;50.350;6.576;2023-01-09T13:41:59;94743.41;;;3.99;100.00
23229;BME280;11783;50.350;6.576;2023-01-09T13:44:44;94741.41;;;4.06;100.00
23229;BME280;11783;50.350;6.576;2023-01-09T13:47:23;94748.34;;;3.95;100.00
23229;BME280;11783;50.350;6.576;2023-01-09T13:52:48;94754.09;;;3.92;100.00
23229;BME280;11783;50.350;6.576;2023-01-09T14:05:09;94782.09;;;3.87;100.00
23229;BME280;11783;50.350;6.576;2023-01-09T14:12:44;94799.78;;;3.75;100.00
23229;BME280;11783;50.350;6.576;2023-01-09T14:15:40;94801.97;;;3.66;100.00
23229;BME280;11783;50.350;6.576;2023-01-09T14:18:31;94802.03;;;3.71;100.00
23229;BME280;11783;50.350;6.576;2023-01-09T14:21:09;94812.56;;;3.71;100.00
23229;BME280;11783;50.350;6.576;2023-01-09T14:23:57;94816.38;;;3.63;100.00
23229;BME280;11783;50.350;6.576;2023-01-09T14:31:52;94819.59;;;3.54;100.00
23229;BME280;11783;50.350;6.576;2023-01-09T14:34:29;94838.00;;;3.54;100.00
23229;BME280;11783;50.350;6.576;2023-01-09T14:37:00;94843.00;;;3.55;100.00
23229;BME280;11783;50.350;6.576;2023-01-09T14:39:30;94848.72;;;3.52;100.00
23229;BME280;11783;50.350;6.576;2023-01-09T14:42:02;94844.38;;;3.58;100.00
23229;BME280;11783;50.350;6.576;2023-01-09T14:44:53;94859.34;;;3.57;100.00
23229;BME280;11783;50.350;6.576;2023-01-09T14:49:57;94867.78;;;3.59;100.00
23229;BME280;11783;50.350;6.576;2023-01-09T14:52:27;94875.22;;;3.51;100.00
23229;BME280;11783;50.350;6.576;2023-01-09T14:54:57;94878.28;;;3.59;100.00
23229;BME280;11783;50.350;6.576;2023-01-09T14:57:30;94888.41;;;3.68;100.00
23229;BME280;11783;50.350;6.576;2023-01-09T15:02:21;94907.13;;;3.71;100.00
23229;BME280;11783;50.350;6.576;2023-01-09T15:04:48;94902.25;;;3.63;100.00
23229;BME280;11783;50.350;6.576;2023-01-09T15:07:21;94915.72;;;3.67;100.00
23229;BME280;11783;50.350;6.576;2023-01-09T15:09:50;94920.31;;;3.59;100.00
23229;BME280;11783;50.350;6.576;2023-01-09T15:12:21;94928.44;;;3.46;100.00
23229;BME280;11783;50.350;6.576;2023-01-09T15:14:52;94940.53;;;3.47;100.00
23229;BME280;11783;50.350;6.576;2023-01-09T15:17:30;94937.25;;;3.40;100.00
23229;BME280;11783;50.350;6.576;2023-01-09T15:20:00;94945.81;;;3.36;100.00
23229;BME280;11783;50.350;6.576;2023-01-09T15:22:35;94954.84;;;3.40;100.00
23229;BME280;11783;50.350;6.576;2023-01-09T15:27:49;94979.72;;;3.25;100.00
23229;BME280;11783;50.350;6.576;2023-01-09T15:30:27;94973.56;;;3.20;100.00
23229;BME280;11783;50.350;6.576;2023-01-09T15:33:04;94979.72;;;3.25;100.00
23229;BME280;11783;50.350;6.576;2023-01-09T15:35:35;94991.94;;;3.20;100.00
23229;BME280;11783;50.350;6.576;2023-01-09T15:38:04;94996.50;;;3.24;100.00
23229;BME280;11783;50.350;6.576;2023-01-09T15:40:33;94998.88;;;3.26;100.00
23229;BME280;11783;50.350;6.576;2023-01-09T15:42:59;95007.78;;;3.25;100.00
23229;BME280;11783;50.350;6.576;2023-01-09T15:45:29;94998.22;;;3.19;100.00